Lowell, Arkansas
Current Conditions -  °F | °C
As of 12:48 PM on Sunday 23 Nov 2014 (Local Time) from KASG Reporting Station
Broken Clouds Broken Clouds  
Wind Chill: 64°   Ceiling: 2100
Heat Index: 64°   Visibility: 10mi
Dew Point: 55°   Wind: 15mph
Humidity: 73%   Direction: 190°S
Pressure: 29.38"   Gusts: NA
Location:  36.26°N, 94.13°W
Report Text: KASG 231848Z 19013KT 10SM BKN021 18/13 A2938
Loading
Personal Weather Stations






























Interactive Weather Map New forecast layout! Learn more

10-Day Weather Forecast

Advertisements
Track Severe Weather on mobile